ADDS METAR Data INFO
IDs: Format: Raw Decoded Include TAF

Data at: 1910 UTC 23 Apr 2018

KLWT 231854Z AUTO 01006KT 5SM -RA BR FEW008 BKN026 OVC034 02/02 A3037 RMK AO2 SLP304 P0001 I1000 T00220017
KLWT 231849Z AUTO 36007KT 9SM -RA FEW006 BKN026 OVC034 03/02 A3037 RMK AO2 P0001 I1000
KLWT 231837Z AUTO 36007KT 9SM -RA SCT007 BKN010 OVC035 03/02 A3037 RMK AO2 P0001 I1000 T00280022
KLWT 231817Z AUTO 31006KT 8SM -RA BKN009 OVC014 02/02 A3036 RMK AO2 CIG 005V010 P0000 T00220017
KLWT 231754Z AUTO 30007KT 10SM -RA SCT005 OVC012 02/02 A3036 RMK AO2 UPB35E46RAB46SNE35 SLP299 P0002 60019 T00220017 10022 20000 51011
KLWT 231744Z AUTO 29009KT 10SM UP SCT003 SCT007 OVC012 02/02 A3036 RMK AO2 UPB35SNE35 P0002 T00170017
KLWT 231720Z AUTO 30007KT 4SM -SN BR BKN003 OVC011 01/01 A3036 RMK AO2 CIG 001V006 P0001 T00110011
KLWT 231711Z AUTO 31006KT 2 1/2SM -SN BR BKN003 OVC009 01/01 A3036 RMK AO2 CIG 001V006 P0001 T00060006
KLWT 231654Z AUTO 32005KT 1SM -SN BR OVC004 01/01 A3036 RMK AO2 UPB07E13SNE07B13 CIG 002V006 SLP295 P0003 T00060006
KLWT 231643Z AUTO 32005KT 1 3/4SM -SN BR OVC005 01/01 A3035 RMK AO2 UPB07E13SNE07B13 CIG 002V008 P0002 T00110006
KLWT 231617Z AUTO 35004KT 8SM -SN OVC005 01/01 A3034 RMK AO2 UPB07E13SNE07B13 CIG 002V008 P0000 T00110011
KLWT 231554Z AUTO 00000KT 3SM -SN BR BKN003 OVC007 01/01 A3033 RMK AO2 SLP286 P0001 T00110006
KLWT 231549Z AUTO 00000KT 2 1/2SM -SN BR OVC003 01/01 A3033 RMK AO2 P0001
KLWT 231529Z AUTO 33003KT 3SM -SN BR OVC001 01/01 A3033 RMK AO2 P0000 T00060006
KLWT 231506Z AUTO 32003KT 2 1/2SM -SN BR BKN001 BKN025 OVC035 01/01 A3032 RMK AO2 P0000 T00060006
KLWT 231501Z AUTO 00000KT 3SM -SN BR SCT001 BKN023 OVC033 01/01 A3032 RMK AO2 P0000 T00060006
KLWT 231454Z AUTO 00000KT 2 1/2SM -SN BR FEW001 BKN021 OVC033 01/01 A3033 RMK AO2 SLP283 P0001 60013 T00060006 53010
KLWT 231354Z AUTO 28003KT 1SM -SN BR FEW002 BKN017 OVC027 00/00 A3031 RMK AO2 SLP277 P0005 T00000000
KLWT 231346Z AUTO 28003KT 1SM -SN BR FEW002 SCT007 OVC015 00/00 A3031 RMK AO2 P0004 T00000000
KLWT 231338Z AUTO 27003KT 3/4SM -SN BR FEW007 OVC013 00/00 A3030 RMK AO2 P0004 T00000000
KLWT 231254Z AUTO 25004KT 1/2SM -SN FG OVC006 00/00 A3029 RMK AO2 SLP267 P0007 T00000000
KLWT 231249Z AUTO 25005KT 1/2SM -SN FG OVC006 00/00 A3029 RMK AO2 CIG 003V007 P0007
KLWT 231214Z AUTO 26004KT 1 1/4SM -SN BR BKN007 OVC013 00/00 A3028 RMK AO2 P0002 T00000000
KLWT 231206Z AUTO 24003KT 1 1/4SM -SN BR FEW007 OVC013 00/00 A3028 RMK AO2 P0002 T00000000
KLWT 231154Z AUTO 22003KT 1 1/2SM -SN BR BKN013 OVC018 00/00 A3027 RMK AO2 SLP256 P0006 60018 70019 T00000000 10056 20000 51009
KLWT 231150Z AUTO 21003KT 1 1/2SM -SN BR OVC015 00/00 A3027 RMK AO2 P0006
KLWT 231114Z AUTO 17004KT 1 1/2SM -SN BR FEW008 OVC014 01/01 A3026 RMK AO2 P0003 T00060006
KLWT 231103Z AUTO 17006KT 1 3/4SM -SN BR OVC014 01/01 A3025 RMK AO2 P0001 T00060006
KLWT 231054Z AUTO 16006KT 2 1/2SM -SN BR OVC016 01/01 A3026 RMK AO2 RAE38SNB38 SLP249 P0004 T00060006
KLWT 230954Z AUTO 14006KT 7SM -RA OVC022 02/02 A3024 RMK AO2 SLP242 P0004 T00170017
KLWT 230904Z AUTO 14008KT 10SM -RA OVC026 02/02 A3023 RMK AO2 P0001 T00220017
KLWT 230854Z AUTO 14010KT 10SM -RA OVC030 02/02 A3023 RMK AO2 SLP237 P0000 60004 T00220017 50003
KLWT 230825Z AUTO 14012KT 10SM -RA OVC031 02/02 A3022 RMK AO2 P0000 T00220017
KLWT 230754Z AUTO 14009KT 8SM -RA OVC025 03/02 A3023 RMK AO2 SLP239 P0003 T00280017
KLWT 230654Z AUTO 10007KT 10SM -RA OVC024 04/02 A3023 RMK AO2 SLP236 P0001 T00440017 401560000
KLWT 230642Z AUTO 07007KT 9SM -RA BKN026 OVC032 05/01 A3023 RMK AO2 P0001 T00500011
KLWT 230616Z AUTO 15009KT 10SM -RA OVC030 06/02 A3022 RMK AO2 P0000 T00560017
KLWT 230554Z AUTO 16004KT 9SM -RA OVC028 06/02 A3022 RMK AO2 RAB07 SLP231 P0001 60001 T00560017 10144 20056 51021
KLWT 230541Z AUTO 08004KT 10SM -RA BKN028 OVC038 06/01 A3022 RMK AO2 RAB07 P0000 T00610011
KLWT 230454Z AUTO 35004KT 10SM OVC050 08/M02 A3021 RMK AO2 SLP226 T00831017
KLWT 230354Z AUTO 36006KT 10SM OVC065 09/M04 A3018 RMK AO2 SLP217 T00891044
KLWT 230254Z AUTO 34009KT 10SM OVC075 09/M04 A3015 RMK AO2 SLP207 T00941044 53018
KLWT 230154Z AUTO 02009KT 10SM BKN070 OVC100 10/M04 A3012 RMK AO2 SLP200 T01001044
KLWT 230054Z AUTO 01009KT 10SM CLR 12/M04 A3010 RMK AO2 SLP197 T01171044
KLWT 222354Z AUTO 01009KT 10SM CLR 14/M03 A3009 RMK AO2 SLP188 T01441033 10156 20117 53001
KLWT 222254Z AUTO 35008KT 10SM CLR 14/M03 A3009 RMK AO2 SLP190 T01441033
KLWT 222154Z AUTO 36010G14KT 10SM CLR 14/M03 A3008 RMK AO2 SLP187 T01441033
KLWT 222054Z AUTO 00000KT 10SM FEW070 14/M04 A3009 RMK AO2 SLP189 T01391039 56012
KLWT 221954Z AUTO 32006KT 10SM BKN080 13/M04 A3009 RMK AO2 SLP192 T01331039
KLWT 221854Z AUTO 30010G15KT 10SM FEW085 13/M04 A3011 RMK AO2 SLP196 T01281044
KLWT 221754Z AUTO VRB04KT 10SM BKN070 12/M06 A3013 RMK AO2 SLP198 T01171056 10117 20022 58009
KLWT 221654Z AUTO 25012KT 10SM BKN070 OVC085 11/M06 A3013 RMK AO2 SLP203 T01061061
KLWT 221554Z AUTO 23014KT 10SM OVC070 10/M05 A3015 RMK AO2 SLP205 T01001050
KLWT 221454Z AUTO 00000KT 10SM OVC070 08/M07 A3015 RMK AO2 SLP208 T00831072 50000
KLWT 221354Z AUTO 10003KT 10SM OVC070 05/M03 A3016 RMK AO2 SLP210 T00501033
KLWT 221254Z AUTO 11005KT 10SM BKN070 OVC095 03/M04 A3016 RMK AO2 SLP208 T00281044
KLWT 221154Z AUTO 14005KT 10SM OVC080 02/M04 A3015 RMK AO2 SLP203 T00221044 10061 20000 50002
KLWT 221054Z AUTO 14005KT 10SM BKN080 01/M05 A3016 RMK AO2 SLP205 T00111050
KLWT 220954Z AUTO 15006KT 10SM CLR 02/M06 A3015 RMK AO2 SLP202 T00171056
KLWT 220854Z AUTO 17004KT 10SM CLR 02/M05 A3015 RMK AO2 SLP201 T00171050 53005
KLWT 220754Z AUTO 20008KT 10SM CLR 02/M06 A3014 RMK AO2 SLP198 T00221056